Time;durP1;ratioP1;P1;durP2;ratioP2;P2;SDS_P1;SDS_P2;PMS_P1;PMS_P2;Temp;Humidity;BMP_temperature;BMP_pressure;BME280_temperature;BME280_humidity;BME280_pressure;Samples;Min_cycle;Max_cycle;Signal;HPM_P1;HPM_P2
2022/01/26 00:00:06;;;;;;;2.00;1.90;;;19.50;54.50;;;;;;5093426;28;20031;-70
2022/01/26 00:08:00;;;;;;;2.03;1.83;;;19.50;54.50;;;;;;5094665;28;20119;-69
2022/01/26 00:10:25;;;;;;;2.05;1.90;;;19.50;54.50;;;;;;5093044;28;20111;-69
2022/01/26 00:12:51;;;;;;;2.05;1.95;;;19.50;54.50;;;;;;5077047;28;20058;-69
2022/01/26 00:15:17;;;;;;;2.22;1.95;;;19.50;54.50;;;;;;5072788;28;20100;-70
2022/01/26 00:17:42;;;;;;;2.15;1.95;;;19.60;54.50;;;;;;5073102;28;20036;-69
2022/01/26 00:23:08;;;;;;;1.70;1.60;;;19.60;54.50;;;;;;5094453;28;20406;-69
2022/01/26 00:25:42;;;;;;;2.25;2.05;;;19.50;54.40;;;;;;5092175;28;20099;-69
2022/01/26 00:28:34;;;;;;;2.10;1.90;;;19.60;54.60;;;;;;5092734;28;20059;-69
2022/01/26 00:38:49;;;;;;;2.08;1.88;;;19.60;54.60;;;;;;5094178;28;20039;-70
2022/01/26 00:41:19;;;;;;;2.08;1.75;;;19.60;54.60;;;;;;5075960;28;20034;-70
2022/01/26 00:43:50;;;;;;;2.38;2.17;;;19.60;54.60;;;;;;5093782;28;20036;-70
2022/01/26 00:46:16;;;;;;;2.33;2.13;;;19.60;54.60;;;;;;5092559;28;20433;-70
2022/01/26 00:48:42;;;;;;;1.80;1.70;;;19.60;54.60;;;;;;5092622;28;20024;-70
2022/01/26 00:51:09;;;;;;;2.30;2.10;;;19.60;54.60;;;;;;5092408;28;20024;-69
2022/01/26 00:53:44;;;;;;;2.08;1.98;;;19.60;54.60;;;;;;5092351;28;20028;-70
2022/01/26 00:56:10;;;;;;;1.70;1.60;;;19.70;54.60;;;;;;5092422;28;20026;-69
2022/01/26 00:58:36;;;;;;;2.00;1.90;;;19.60;54.60;;;;;;5092107;28;20452;-70
2022/01/26 01:01:03;;;;;;;2.33;2.13;;;19.60;54.60;;;;;;5093596;28;20525;-70
2022/01/26 01:03:30;;;;;;;2.40;2.20;;;19.70;54.60;;;;;;5092052;28;20111;-70
2022/01/26 01:08:23;;;;;;;2.20;2.00;;;19.70;54.60;;;;;;5093592;28;20028;-70
2022/01/26 01:10:51;;;;;;;2.05;1.90;;;19.70;54.60;;;;;;5091918;28;20051;-70
2022/01/26 01:13:20;;;;;;;2.28;2.10;;;19.70;54.60;;;;;;5071283;28;20028;-69
2022/01/26 01:15:46;;;;;;;2.15;2.00;;;19.70;54.70;;;;;;5071769;28;20066;-69
2022/01/26 01:18:23;;;;;;;3.38;2.40;;;19.70;54.70;;;;;;5072363;28;20383;-69
2022/01/26 01:29:06;;;;;;;2.03;1.92;;;19.70;54.70;;;;;;5091474;28;20055;-69
2022/01/26 01:31:50;;;;;;;2.30;2.10;;;19.70;54.70;;;;;;5091631;28;20031;-69
2022/01/26 01:34:17;;;;;;;2.00;1.90;;;19.60;54.70;;;;;;5092817;28;20057;-69
2022/01/26 01:36:46;;;;;;;2.38;2.17;;;19.60;54.70;;;;;;5091843;28;20043;-69
2022/01/26 01:39:12;;;;;;;2.05;1.95;;;19.60;54.70;;;;;;5091591;28;20024;-70
2022/01/26 01:41:38;;;;;;;2.25;2.05;;;19.70;54.80;;;;;;5091214;28;20103;-70
2022/01/26 01:44:05;;;;;;;2.28;2.00;;;19.70;54.80;;;;;;5091782;28;20021;-70
2022/01/26 01:46:31;;;;;;;1.73;1.63;;;19.70;54.90;;;;;;5091504;28;20149;-70
2022/01/26 01:48:57;;;;;;;1.90;1.80;;;19.70;54.80;;;;;;5091579;28;20069;-70
2022/01/26 01:51:31;;;;;;;3.03;1.98;;;19.60;54.80;;;;;;5091448;28;20024;-70
2022/01/26 01:53:56;;;;;;;1.90;1.80;;;19.70;54.80;;;;;;5091547;28;20398;-70
2022/01/26 01:56:25;;;;;;;2.05;1.95;;;19.60;54.80;;;;;;5092211;28;20016;-70
2022/01/26 01:58:53;;;;;;;2.67;2.30;;;19.60;54.80;;;;;;5092852;28;20031;-70
2022/01/26 02:01:18;;;;;;;2.08;1.98;;;19.70;54.90;;;;;;5092419;28;20027;-70
2022/01/26 02:03:44;;;;;;;2.13;1.90;;;19.60;54.80;;;;;;5091437;28;20028;-70
2022/01/26 02:06:10;;;;;;;2.05;1.85;;;19.70;54.90;;;;;;5092458;28;20367;-69
2022/01/26 02:08:35;;;;;;;2.58;1.92;;;19.70;54.90;;;;;;5091457;28;20133;-69
2022/01/26 02:11:03;;;;;;;1.90;1.80;;;19.70;54.90;;;;;;5090225;28;20028;-69
2022/01/26 02:13:35;;;;;;;2.25;2.05;;;19.70;54.90;;;;;;5071979;28;20032;-69
2022/01/26 02:16:10;;;;;;;2.08;1.98;;;19.70;54.90;;;;;;5055366;28;20017;-69
2022/01/26 03:01:54;;;;;;;1.92;1.83;;;19.60;55.20;;;;;;5094636;28;20401;-69
2022/01/26 03:04:29;;;;;;;1.70;1.60;;;19.60;55.20;;;;;;5095687;28;20016;-69
2022/01/26 03:07:05;;;;;;;2.08;1.88;;;19.60;55.20;;;;;;5094632;28;20024;-69
2022/01/26 03:09:37;;;;;;;1.83;1.73;;;19.60;55.20;;;;;;5095213;28;20024;-69
2022/01/26 03:12:05;;;;;;;3.05;1.80;;;19.60;55.20;;;;;;5085077;28;20518;-69
2022/01/26 03:14:51;;;;;;;1.80;1.70;;;19.60;55.20;;;;;;5073940;28;20017;-70
2022/01/26 03:19:49;;;;;;;1.92;1.83;;;19.60;55.20;;;;;;5087848;28;20024;-70
2022/01/26 03:28:27;;;;;;;2.30;2.10;;;19.60;55.20;;;;;;5094999;28;20031;-69
2022/01/26 03:33:46;;;;;;;1.98;1.70;;;19.60;55.30;;;;;;5045002;28;20036;-69
2022/01/26 03:36:12;;;;;;;1.60;1.50;;;19.60;55.20;;;;;;5095026;28;20062;-69
2022/01/26 03:39:20;;;;;;;2.10;1.90;;;19.60;55.30;;;;;;5093607;28;20069;-69
2022/01/26 03:43:54;;;;;;;1.70;1.60;;;19.60;55.30;;;;;;5095229;28;20024;-69
2022/01/26 03:46:20;;;;;;;2.45;2.10;;;19.60;55.30;;;;;;5093737;28;20020;-69
2022/01/26 03:48:45;;;;;;;2.10;1.90;;;19.60;55.30;;;;;;5093329;28;20032;-69
2022/01/26 03:51:11;;;;;;;2.10;1.95;;;19.60;55.30;;;;;;5093765;28;20093;-70
2022/01/26 03:53:36;;;;;;;1.90;1.80;;;19.60;55.30;;;;;;5094304;28;20024;-70
2022/01/26 03:56:02;;;;;;;1.90;1.80;;;19.60;55.30;;;;;;5093812;28;20043;-69
2022/01/26 03:58:28;;;;;;;2.03;1.88;;;19.60;55.30;;;;;;5093455;28;20092;-69
2022/01/26 04:00:54;;;;;;;1.88;1.77;;;19.60;55.30;;;;;;5093464;28;20390;-69
2022/01/26 04:03:19;;;;;;;2.22;1.90;;;19.60;55.20;;;;;;5094633;28;20070;-69
2022/01/26 04:05:45;;;;;;;2.15;2.00;;;19.60;55.30;;;;;;5093616;28;20161;-69
2022/01/26 04:08:17;;;;;;;2.30;2.10;;;19.60;55.30;;;;;;5092988;28;20111;-69
2022/01/26 04:13:26;;;;;;;1.98;1.88;;;19.60;55.30;;;;;;5072910;28;20033;-69
2022/01/26 04:15:52;;;;;;;2.30;2.10;;;19.60;55.30;;;;;;5073068;28;20095;-69
2022/01/26 04:18:23;;;;;;;2.20;2.10;;;19.60;55.30;;;;;;5074464;28;20039;-69
2022/01/26 04:20:53;;;;;;;3.10;1.92;;;19.50;55.20;;;;;;5093177;28;20023;-69
2022/01/26 04:24:22;;;;;;;2.15;2.00;;;19.60;55.30;;;;;;5094267;28;20028;-69
2022/01/26 04:26:16;;;;;;;2.33;2.10;;;19.60;55.30;;;;;;5084634;28;20035;-69
2022/01/26 04:28:49;;;;;;;2.40;2.10;;;19.50;55.20;;;;;;5093938;28;20044;-69
2022/01/26 04:31:16;;;;;;;;;;;19.60;56.30;;;;;;5093862;28;20042;-69
2022/01/26 04:33:41;;;;;;;2.10;1.90;;;19.50;55.20;;;;;;5093845;28;19915;-69
2022/01/26 04:36:11;;;;;;;1.90;1.80;;;19.50;55.30;;;;;;5093660;28;20028;-69
2022/01/26 04:38:43;;;;;;;3.35;1.90;;;19.50;56.30;;;;;;5094214;28;20125;-69
2022/01/26 04:43:40;;;;;;;2.38;1.88;;;19.50;55.20;;;;;;5092536;28;20024;-69
2022/01/26 04:46:07;;;;;;;2.83;2.10;;;19.50;55.20;;;;;;5092863;28;20020;-69
2022/01/26 04:48:33;;;;;;;2.17;2.08;;;19.50;55.20;;;;;;5092550;28;20022;-69
2022/01/26 04:50:58;;;;;;;1.83;1.73;;;19.50;55.20;;;;;;5093230;28;20028;-69
2022/01/26 04:53:24;;;;;;;1.80;1.70;;;19.50;55.20;;;;;;5092566;28;20036;-69
2022/01/26 04:55:50;;;;;;;1.75;1.65;;;19.50;55.20;;;;;;5092501;28;20478;-69
2022/01/26 04:58:16;;;;;;;1.92;1.83;;;19.50;55.20;;;;;;5093733;28;20065;-69
2022/01/26 05:00:41;;;;;;;2.00;1.80;;;19.50;55.20;;;;;;5093746;28;20466;-69
2022/01/26 05:03:07;;;;;;;1.55;1.45;;;19.50;55.20;;;;;;5093550;28;20077;-69
2022/01/26 05:05:32;;;;;;;2.10;1.90;;;19.60;55.30;;;;;;5091689;28;20073;-69
2022/01/26 05:07:58;;;;;;;2.15;1.98;;;19.50;55.20;;;;;;5093572;28;20024;-69
2022/01/26 05:10:24;;;;;;;2.20;2.00;;;19.50;55.20;;;;;;5093301;28;20105;-69
2022/01/26 05:12:49;;;;;;;1.80;1.70;;;19.50;55.20;;;;;;5076135;28;20077;-69
2022/01/26 05:15:15;;;;;;;2.95;2.15;;;19.50;55.30;;;;;;5071615;28;20107;-69
2022/01/26 05:17:41;;;;;;;1.88;1.67;;;19.50;55.20;;;;;;5072815;28;20447;-69
2022/01/26 05:20:09;;;;;;;3.08;1.90;;;19.60;55.30;;;;;;5088190;28;20031;-69
2022/01/26 05:22:40;;;;;;;2.15;1.95;;;19.50;55.20;;;;;;5091972;28;20027;-69
2022/01/26 05:25:06;;;;;;;2.15;2.05;;;19.60;55.30;;;;;;5092997;28;20032;-69
2022/01/26 05:27:32;;;;;;;1.85;1.75;;;19.50;55.20;;;;;;5091675;28;20020;-70
2022/01/26 05:29:58;;;;;;;2.00;1.90;;;19.50;55.20;;;;;;5093157;28;20394;-69
2022/01/26 05:32:24;;;;;;;1.92;1.83;;;19.50;55.20;;;;;;5091685;28;20490;-69
2022/01/26 05:34:50;;;;;;;2.15;1.95;;;19.50;55.20;;;;;;5091218;28;20020;-69
2022/01/26 05:37:15;;;;;;;1.83;1.73;;;19.50;55.20;;;;;;5091904;28;20479;-69
2022/01/26 05:39:41;;;;;;;2.92;1.98;;;19.50;55.20;;;;;;5091473;28;20111;-69
2022/01/26 05:42:07;;;;;;;2.35;2.05;;;19.50;55.20;;;;;;5092759;28;20024;-69
2022/01/26 05:44:33;;;;;;;2.03;1.70;;;19.50;55.20;;;;;;5074853;28;20028;-69
2022/01/26 05:46:58;;;;;;;2.00;1.90;;;19.50;55.20;;;;;;5092619;28;20035;-69
2022/01/26 05:49:25;;;;;;;1.70;1.60;;;19.50;55.20;;;;;;5092287;28;20036;-69
2022/01/26 05:51:51;;;;;;;3.40;1.75;;;19.50;55.20;;;;;;5092683;28;20102;-69
2022/01/26 05:54:17;;;;;;;1.90;1.80;;;19.50;55.20;;;;;;5092622;28;20483;-69
2022/01/26 05:56:44;;;;;;;1.95;1.73;;;19.50;55.20;;;;;;5092674;28;20027;-69
2022/01/26 05:59:10;;;;;;;2.38;1.98;;;19.50;55.30;;;;;;5074662;28;20047;-69
2022/01/26 06:01:35;;;;;;;1.90;1.75;;;19.50;55.30;;;;;;5091351;28;20525;-69
2022/01/26 06:04:01;;;;;;;1.77;1.67;;;19.50;55.30;;;;;;5090909;28;20024;-69
2022/01/26 06:06:27;;;;;;;1.83;1.73;;;19.50;55.30;;;;;;5091243;28;20448;-70
2022/01/26 06:08:52;;;;;;;2.40;2.10;;;19.50;55.30;;;;;;5090239;28;20030;-69
2022/01/26 06:11:18;;;;;;;1.83;1.73;;;19.50;55.40;;;;;;5086007;28;20028;-69
2022/01/26 06:13:44;;;;;;;2.05;1.88;;;19.50;55.40;;;;;;5090482;28;20065;-70
2022/01/26 06:16:09;;;;;;;1.80;1.70;;;19.50;55.50;;;;;;5090835;28;20065;-70
2022/01/26 06:18:35;;;;;;;1.75;1.60;;;19.50;55.40;;;;;;5089080;28;20493;-70
2022/01/26 06:21:01;;;;;;;1.90;1.80;;;19.60;55.50;;;;;;5088837;28;20028;-69
2022/01/26 06:23:26;;;;;;;1.90;1.80;;;19.50;55.40;;;;;;5089513;28;20482;-69
2022/01/26 06:25:54;;;;;;;1.88;1.77;;;19.50;55.40;;;;;;5090961;28;20024;-69
2022/01/26 06:28:20;;;;;;;2.00;1.88;;;19.60;55.40;;;;;;5093274;28;20079;-69
2022/01/26 06:30:46;;;;;;;1.88;1.77;;;19.60;55.50;;;;;;5077987;28;20463;-69
2022/01/26 06:33:12;;;;;;;1.80;1.70;;;19.50;55.50;;;;;;5090773;28;20039;-69
2022/01/26 06:35:38;;;;;;;1.88;1.77;;;19.60;55.50;;;;;;5082136;28;20394;-69
2022/01/26 06:38:03;;;;;;;2.88;1.95;;;19.60;55.50;;;;;;5085013;28;20058;-69
2022/01/26 06:40:29;;;;;;;3.03;2.72;;;19.60;55.50;;;;;;5090484;28;20016;-67
2022/01/26 06:43:05;;;;;;;5.47;4.90;;;19.50;55.20;;;;;;5077864;28;20509;-67
2022/01/26 06:45:35;;;;;;;6.07;4.85;;;19.50;54.50;;;;;;5088556;28;20016;-67
2022/01/26 06:50:38;;;;;;;4.90;4.50;;;19.30;54.20;;;;;;5080384;28;20020;-68
2022/01/26 06:53:04;;;;;;;5.35;4.88;;;19.20;54.20;;;;;;5090844;28;20529;-67
2022/01/26 06:55:29;;;;;;;4.75;4.35;;;19.20;54.20;;;;;;5080236;28;20016;-67
2022/01/26 06:57:55;;;;;;;5.32;4.68;;;19.10;54.10;;;;;;5084836;28;20021;-67
2022/01/26 07:00:21;;;;;;;5.20;4.70;;;19.10;54.10;;;;;;5087415;28;20031;-67
2022/01/26 07:02:46;;;;;;;4.85;4.45;;;19.10;54.10;;;;;;5077541;28;20495;-67
2022/01/26 07:05:12;;;;;;;6.03;5.28;;;19.00;54.10;;;;;;5091833;28;20103;-67
2022/01/26 07:07:38;;;;;;;5.30;4.80;;;19.00;54.10;;;;;;5082116;28;20051;-67
2022/01/26 07:10:04;;;;;;;5.22;4.72;;;19.00;54.00;;;;;;5083586;28;20111;-67
2022/01/26 07:12:30;;;;;;;5.20;4.70;;;19.00;54.00;;;;;;5075120;28;20036;-67
2022/01/26 07:23:05;;;;;;;5.10;4.35;;;18.90;53.90;;;;;;5076901;28;20036;-67
2022/01/26 07:25:31;;;;;;;5.82;5.15;;;18.80;53.80;;;;;;5088301;28;20016;-67
2022/01/26 07:27:57;;;;;;;5.15;4.65;;;18.80;53.70;;;;;;5083799;28;20059;-68
2022/01/26 07:30:23;;;;;;;6.28;5.07;;;18.80;53.70;;;;;;5080829;28;20017;-67
2022/01/26 07:32:48;;;;;;;5.40;4.72;;;18.80;53.70;;;;;;5089882;28;20505;-68
2022/01/26 07:35:14;;;;;;;5.45;4.93;;;18.80;53.60;;;;;;5076562;28;20016;-67
2022/01/26 07:37:39;;;;;;;5.15;4.53;;;18.80;53.60;;;;;;5073098;28;20029;-67
2022/01/26 07:40:06;;;;;;;5.50;4.90;;;18.80;53.60;;;;;;5075816;28;20552;-67
2022/01/26 07:42:35;;;;;;;8.48;5.18;;;18.80;53.60;;;;;;5073201;28;20478;-67
2022/01/26 07:45:03;;;;;;;8.48;4.95;;;18.80;53.50;;;;;;5071667;28;20021;-67
2022/01/26 07:47:31;;;;;;;8.60;5.00;;;18.80;53.60;;;;;;5073771;28;20048;-67
2022/01/26 07:49:58;;;;;;;7.88;5.43;;;18.80;53.60;;;;;;5074115;28;20478;-67
2022/01/26 07:52:25;;;;;;;6.90;5.50;;;18.70;53.60;;;;;;5073739;28;20085;-67
2022/01/26 07:54:52;;;;;;;9.98;6.07;;;18.80;53.60;;;;;;5073727;28;20020;-67
2022/01/26 07:57:21;;;;;;;10.60;5.68;;;18.80;53.60;;;;;;5074117;28;20128;-67
2022/01/26 07:59:47;;;;;;;10.57;5.85;;;18.70;53.60;;;;;;5073247;28;20021;-67
2022/01/26 08:02:12;;;;;;;12.10;5.70;;;18.80;53.60;;;;;;5079501;28;20070;-67
2022/01/26 08:04:38;;;;;;;11.55;5.70;;;18.70;53.60;;;;;;5088083;28;20390;-68
2022/01/26 08:07:04;;;;;;;14.95;6.28;;;18.70;53.60;;;;;;5075609;28;20033;-67
2022/01/26 08:09:29;;;;;;;11.52;6.13;;;18.80;53.60;;;;;;5058333;28;20108;-67
2022/01/26 08:11:55;;;;;;;9.70;5.88;;;18.80;53.60;;;;;;5083868;28;20038;-67
2022/01/26 08:14:21;;;;;;;7.90;5.70;;;18.80;53.60;;;;;;5056137;28;20027;-67
2022/01/26 08:16:46;;;;;;;12.63;5.40;;;18.80;53.50;;;;;;5073080;28;20024;-67
2022/01/26 08:19:13;;;;;;;9.38;6.00;;;18.70;53.50;;;;;;5084486;28;20047;-67
2022/01/26 08:21:38;;;;;;;12.10;5.97;;;18.70;53.60;;;;;;5094361;28;20498;-67
2022/01/26 08:24:12;;;;;;;8.43;5.60;;;18.70;53.50;;;;;;5094451;28;20031;-67
2022/01/26 08:26:42;;;;;;;11.85;5.82;;;18.70;53.50;;;;;;5093223;28;20394;-67
2022/01/26 08:29:17;;;;;;;10.13;5.70;;;18.70;53.40;;;;;;5093716;28;20044;-67
2022/01/26 08:31:43;;;;;;;11.05;5.80;;;18.70;53.50;;;;;;5093924;28;20016;-67
2022/01/26 08:34:09;;;;;;;9.88;5.75;;;18.70;53.50;;;;;;5092812;28;20031;-67
2022/01/26 08:36:34;;;;;;;7.63;5.50;;;18.70;53.50;;;;;;5078580;28;20021;-67
2022/01/26 08:39:00;;;;;;;11.88;5.88;;;18.70;53.40;;;;;;5073554;28;20031;-68
2022/01/26 08:41:26;;;;;;;8.75;5.85;;;18.70;53.40;;;;;;5072727;28;20092;-67
2022/01/26 08:43:51;;;;;;;9.93;6.00;;;18.70;53.40;;;;;;5073369;28;20114;-67
2022/01/26 08:46:20;;;;;;;8.65;6.15;;;18.60;53.30;;;;;;5073449;28;20465;-67
2022/01/26 08:48:46;;;;;;;8.85;5.93;;;18.70;53.30;;;;;;5055842;28;20021;-67
2022/01/26 08:51:12;;;;;;;7.82;5.47;;;18.70;53.40;;;;;;5072661;28;20483;-67
2022/01/26 08:53:38;;;;;;;7.60;5.93;;;18.70;53.40;;;;;;5073414;28;20086;-67
2022/01/26 08:56:04;;;;;;;8.63;5.68;;;18.70;53.40;;;;;;5073302;28;20441;-67
2022/01/26 08:58:29;;;;;;;11.00;5.43;;;18.60;53.30;;;;;;5072964;28;20028;-67
2022/01/26 09:00:55;;;;;;;7.47;6.00;;;18.70;53.30;;;;;;5072207;28;20017;-67
2022/01/26 09:03:21;;;;;;;10.27;5.97;;;18.60;53.30;;;;;;5072820;28;20161;-67
2022/01/26 09:05:47;;;;;;;7.25;5.57;;;18.60;53.30;;;;;;5071989;28;20469;-67
2022/01/26 09:08:13;;;;;;;7.07;5.68;;;18.60;53.30;;;;;;5073007;28;20108;-67
2022/01/26 09:10:40;;;;;;;9.32;5.68;;;18.60;53.20;;;;;;5069048;28;20018;-67
2022/01/26 09:13:06;;;;;;;10.07;6.00;;;18.60;53.20;;;;;;5091576;28;20024;-67
2022/01/26 09:15:32;;;;;;;7.80;6.20;;;18.60;53.20;;;;;;5092166;28;20057;-67
2022/01/26 09:18:00;;;;;;;8.25;5.65;;;18.60;53.30;;;;;;5093462;28;20016;-67
2022/01/26 09:20:26;;;;;;;10.38;6.07;;;18.60;53.20;;;;;;5092087;28;20391;-67
2022/01/26 09:22:52;;;;;;;5.78;5.00;;;18.60;53.30;;;;;;5091981;28;20513;-67
2022/01/26 09:25:17;;;;;;;9.25;5.82;;;18.60;53.20;;;;;;5091810;28;20391;-67
2022/01/26 09:27:43;;;;;;;8.05;5.22;;;18.60;53.20;;;;;;5092430;28;20102;-68
2022/01/26 09:30:09;;;;;;;7.57;5.35;;;18.60;53.20;;;;;;5091942;28;20036;-67
2022/01/26 09:32:36;;;;;;;10.98;5.90;;;18.60;53.20;;;;;;5091721;28;20042;-67
2022/01/26 09:35:01;;;;;;;7.13;5.18;;;18.60;53.20;;;;;;5091816;28;20446;-67
2022/01/26 09:37:27;;;;;;;5.90;5.00;;;18.60;53.20;;;;;;5091503;28;20105;-67
2022/01/26 09:39:54;;;;;;;7.00;4.88;;;18.60;53.20;;;;;;5091738;28;20101;-67
2022/01/26 09:42:20;;;;;;;6.32;5.20;;;18.60;53.20;;;;;;5092403;28;20418;-67
2022/01/26 09:44:46;;;;;;;7.72;5.20;;;18.60;53.20;;;;;;5091593;28;20028;-67
2022/01/26 09:47:11;;;;;;;7.00;5.43;;;18.60;53.10;;;;;;5091623;28;20020;-67
2022/01/26 09:49:37;;;;;;;6.70;5.47;;;18.60;53.10;;;;;;5092640;28;20028;-67
2022/01/26 09:52:07;;;;;;;7.88;5.45;;;18.60;53.10;;;;;;5091306;28;20020;-67
2022/01/26 09:54:33;;;;;;;8.07;5.57;;;18.60;53.10;;;;;;5091277;28;20099;-67
2022/01/26 09:57:02;;;;;;;5.43;4.80;;;18.60;53.10;;;;;;5091469;28;20103;-67
2022/01/26 09:59:28;;;;;;;7.63;5.75;;;18.60;53.20;;;;;;5091341;28;20064;-67
2022/01/26 10:01:53;;;;;;;5.80;4.65;;;18.60;53.10;;;;;;5084460;28;20045;-67
2022/01/26 10:04:38;;;;;;;5.57;4.78;;;18.60;53.10;;;;;;5071447;28;20070;-67
2022/01/26 10:07:40;;;;;;;6.10;5.15;;;18.60;52.90;;;;;;5071053;28;20622;-67
2022/01/26 10:15:32;;;;;;;6.47;4.45;;;18.60;53.10;;;;;;5091505;28;20043;-67
2022/01/26 10:18:10;;;;;;;5.18;4.60;;;18.50;53.10;;;;;;5091469;28;20020;-67
2022/01/26 10:20:46;;;;;;;5.20;4.70;;;18.60;53.10;;;;;;5092513;28;20020;-67
2022/01/26 10:23:17;;;;;;;7.25;5.18;;;18.50;53.10;;;;;;5074210;28;20024;-67
2022/01/26 10:25:44;;;;;;;6.40;5.10;;;18.60;53.20;;;;;;5090811;28;20099;-67
2022/01/26 10:28:11;;;;;;;5.97;4.72;;;18.50;53.00;;;;;;5090935;28;20048;-67
2022/01/26 10:30:37;;;;;;;6.25;4.65;;;18.50;53.00;;;;;;5091307;28;20031;-67
2022/01/26 10:33:12;;;;;;;8.13;5.00;;;18.60;53.00;;;;;;5090863;28;20115;-67
2022/01/26 10:35:38;;;;;;;4.80;4.35;;;18.60;52.90;;;;;;5091045;28;20020;-67
2022/01/26 10:38:04;;;;;;;5.28;4.55;;;18.50;53.00;;;;;;5090765;28;20024;-67
2022/01/26 10:40:31;;;;;;;5.22;4.45;;;18.50;53.00;;;;;;5090903;28;20475;-67
2022/01/26 10:43:09;;;;;;;5.50;4.75;;;18.60;53.00;;;;;;5090992;28;20031;-67
2022/01/26 10:45:53;;;;;;;4.93;4.47;;;18.60;52.90;;;;;;5090892;28;20466;-67
2022/01/26 10:53:39;;;;;;;5.10;4.60;;;18.60;53.00;;;;;;5090444;28;20028;-67
2022/01/26 10:56:05;;;;;;;4.85;4.40;;;18.50;53.00;;;;;;5092154;28;20047;-67
2022/01/26 10:58:31;;;;;;;4.78;4.13;;;18.50;52.90;;;;;;5091757;28;20052;-67
2022/01/26 11:00:57;;;;;;;6.05;4.53;;;18.50;52.90;;;;;;5090885;28;20024;-67
2022/01/26 11:03:22;;;;;;;5.15;4.32;;;18.50;52.90;;;;;;5071646;28;20101;-67
2022/01/26 11:05:48;;;;;;;5.53;4.15;;;18.50;52.90;;;;;;5070514;28;20031;-67
2022/01/26 11:08:14;;;;;;;4.63;4.18;;;18.50;52.90;;;;;;5071357;28;20036;-67
2022/01/26 11:10:39;;;;;;;4.65;4.03;;;18.60;52.90;;;;;;5067739;28;20051;-67
2022/01/26 11:13:06;;;;;;;4.63;4.05;;;18.50;52.90;;;;;;5090635;28;20068;-67
2022/01/26 11:15:32;;;;;;;4.95;4.32;;;18.60;52.90;;;;;;5093999;28;20081;-67
2022/01/26 11:18:05;;;;;;;6.03;4.30;;;18.50;52.80;;;;;;5077511;28;20020;-67
2022/01/26 11:20:32;;;;;;;;;;;18.60;52.80;;;;;;5094578;28;20504;-67
2022/01/26 11:23:04;;;;;;;5.78;4.20;;;18.50;52.60;;;;;;5095193;28;20370;-67
2022/01/26 11:25:31;;;;;;;4.32;3.92;;;18.50;53.00;;;;;;5095185;28;20024;-67
2022/01/26 11:27:57;;;;;;;4.70;3.83;;;18.50;53.00;;;;;;5094067;28;20051;-67
2022/01/26 11:30:32;;;;;;;4.32;3.75;;;18.50;52.90;;;;;;5094044;28;20035;-67
2022/01/26 11:33:02;;;;;;;4.90;4.40;;;18.60;52.80;;;;;;5095091;28;20103;-67
2022/01/26 11:35:34;;;;;;;4.32;3.92;;;18.50;52.90;;;;;;5095043;28;20024;-67
2022/01/26 11:38:18;;;;;;;4.00;3.60;;;18.50;52.80;;;;;;5094017;28;20027;-67
2022/01/26 11:46:23;;;;;;;3.95;3.65;;;18.50;52.70;;;;;;5094768;28;20077;-67
2022/01/26 11:49:02;;;;;;;4.20;3.85;;;18.50;52.90;;;;;;5095016;28;20440;-67
2022/01/26 11:51:48;;;;;;;3.88;3.58;;;18.50;52.70;;;;;;5093409;28;20021;-67
2022/01/26 11:54:23;;;;;;;5.85;3.88;;;18.60;52.60;;;;;;5093792;28;20090;-67
2022/01/26 11:57:09;;;;;;;5.55;3.90;;;18.50;52.80;;;;;;5093583;28;20474;-67
2022/01/26 11:59:40;;;;;;;4.18;3.78;;;18.50;52.70;;;;;;5094524;28;20397;-67
2022/01/26 12:02:20;;;;;;;4.20;3.80;;;18.50;52.80;;;;;;5085320;28;20024;-67
2022/01/26 12:05:00;;;;;;;3.47;3.15;;;18.50;52.60;;;;;;5073230;28;20031;-67
2022/01/26 12:07:26;;;;;;;3.85;3.45;;;18.50;52.70;;;;;;5074132;28;20454;-67
2022/01/26 12:09:52;;;;;;;3.72;3.33;;;18.50;52.70;;;;;;5080400;28;20474;-67
2022/01/26 12:12:22;;;;;;;3.75;3.30;;;18.50;52.70;;;;;;5094385;28;20035;-67
2022/01/26 12:15:10;;;;;;;4.15;3.75;;;18.50;52.60;;;;;;5094461;28;20024;-67
2022/01/26 12:17:46;;;;;;;3.40;3.10;;;18.60;52.50;;;;;;5093124;28;20024;-67
2022/01/26 12:45:06;;;;;;;4.15;3.72;;;18.50;52.70;;;;;;5071463;28;20029;-67
2022/01/26 12:47:32;;;;;;;3.60;3.30;;;18.50;52.60;;;;;;5054669;28;20098;-67
2022/01/26 12:49:58;;;;;;;4.07;3.25;;;18.50;52.60;;;;;;5070979;28;20368;-67
2022/01/26 12:52:23;;;;;;;4.03;3.50;;;18.50;52.60;;;;;;5054629;28;20107;-67
2022/01/26 12:54:49;;;;;;;3.83;3.53;;;18.50;52.60;;;;;;5054636;28;20488;-67
2022/01/26 12:57:15;;;;;;;3.60;3.13;;;18.50;52.50;;;;;;5054723;28;20039;-67
2022/01/26 12:59:40;;;;;;;4.57;3.53;;;18.50;52.50;;;;;;5064854;28;20402;-67
2022/01/26 13:02:06;;;;;;;3.58;3.28;;;18.50;52.50;;;;;;5085161;28;20036;-67
2022/01/26 13:04:32;;;;;;;3.72;3.33;;;18.50;52.50;;;;;;5073347;28;20103;-67
2022/01/26 13:06:57;;;;;;;3.28;3.00;;;18.50;52.50;;;;;;5055413;28;20020;-67
2022/01/26 13:09:26;;;;;;;3.50;3.10;;;18.60;52.50;;;;;;5076242;28;20027;-67
2022/01/26 13:11:53;;;;;;;3.95;3.45;;;18.50;52.40;;;;;;5092327;28;20054;-67
2022/01/26 13:14:38;;;;;;;3.22;2.92;;;18.60;52.50;;;;;;5092096;28;20069;-67
2022/01/26 13:17:19;;;;;;;2.83;2.60;;;18.60;52.40;;;;;;5092207;28;20024;-67
2022/01/26 13:31:09;;;;;;;3.58;3.10;;;18.50;52.40;;;;;;5016603;28;20511;-67
2022/01/26 13:53:14;;;;;;;3.17;2.88;;;18.50;52.50;;;;;;4971676;28;20121;-67
2022/01/26 14:00:38;;;;;;;3.20;2.90;;;18.50;52.40;;;;;;5004388;28;20030;-67
2022/01/26 14:03:06;;;;;;;;;;;18.50;52.30;;;;;;4995166;28;20029;-67
2022/01/26 14:05:31;;;;;;;2.95;2.75;;;18.50;52.10;;;;;;4994229;28;19909;-67
2022/01/26 14:07:57;;;;;;;3.00;2.67;;;18.40;52.50;;;;;;4994385;28;20034;-67
2022/01/26 14:10:23;;;;;;;2.95;2.70;;;18.50;52.50;;;;;;5010304;28;20499;-67
2022/01/26 14:12:50;;;;;;;2.88;2.67;;;18.50;52.40;;;;;;4994057;28;20084;-67
2022/01/26 14:15:22;;;;;;;3.20;2.90;;;18.50;52.40;;;;;;4994049;28;20042;-67
2022/01/26 14:18:09;;;;;;;2.97;2.70;;;18.50;52.40;;;;;;4994506;28;20551;-67
2022/01/26 14:25:43;;;;;;;3.13;2.92;;;18.50;52.30;;;;;;5070866;28;20040;-67
2022/01/26 14:28:11;;;;;;;3.15;2.85;;;18.50;52.30;;;;;;5070755;28;20124;-68
2022/01/26 14:30:47;;;;;;;2.95;2.75;;;18.50;52.20;;;;;;5070549;28;20020;-67
2022/01/26 15:00:28;;;;;;;3.08;2.70;;;18.50;52.20;;;;;;5019209;28;20129;-67
2022/01/26 15:30:03;;;;;;;2.80;2.60;;;18.50;52.10;;;;;;5032415;28;20060;-67
2022/01/26 15:35:08;;;;;;;2.45;2.25;;;18.50;52.10;;;;;;5032828;28;20567;-67
2022/01/26 15:40:34;;;;;;;2.53;2.33;;;18.50;52.10;;;;;;5094115;28;20542;-67
2022/01/26 15:51:13;;;;;;;2.45;2.25;;;18.50;52.00;;;;;;5093669;28;20515;-67
2022/01/26 16:12:44;;;;;;;2.58;2.38;;;18.50;52.00;;;;;;5051451;28;20033;-67
2022/01/26 16:20:39;;;;;;;2.50;2.30;;;18.50;52.00;;;;;;5052024;28;20025;-67
2022/01/26 17:27:26;;;;;;;2.80;2.60;;;18.50;51.90;;;;;;5079390;28;20074;-73
2022/01/26 18:39:00;;;;;;;2.40;2.20;;;19.00;51.90;;;;;;5074581;28;20023;-71
2022/01/26 18:49:11;;;;;;;3.15;2.80;;;19.00;51.90;;;;;;5094033;28;20398;-71
2022/01/26 18:49:40;;;;;;;3.20;2.80;;;19.00;51.90;;;;;;5087985;28;20016;-71
2022/01/26 18:52:06;;;;;;;2.50;2.30;;;19.10;52.00;;;;;;5079065;28;20023;-71
2022/01/26 18:54:34;;;;;;;3.28;2.58;;;19.10;52.00;;;;;;5092077;28;20062;-72
2022/01/26 18:57:01;;;;;;;2.95;2.40;;;19.10;52.00;;;;;;5092768;28;20016;-72
2022/01/26 18:59:26;;;;;;;2.40;2.20;;;19.20;52.00;;;;;;5089567;28;20077;-72
2022/01/26 19:01:53;;;;;;;2.58;2.38;;;19.30;52.10;;;;;;5072829;28;20025;-75
2022/01/26 19:04:26;;;;;;;2.40;2.20;;;19.30;52.00;;;;;;5062691;28;20074;-73
2022/01/26 19:06:53;;;;;;;2.97;2.10;;;19.30;52.00;;;;;;5073421;28;21233;-75
2022/01/26 19:09:23;;;;;;;2.83;2.10;;;19.40;51.90;;;;;;5077105;28;20391;-74
2022/01/26 19:11:48;;;;;;;2.78;2.30;;;19.40;51.90;;;;;;5077038;28;20056;-73
2022/01/26 19:14:14;;;;;;;2.15;1.98;;;19.40;51.90;;;;;;5080910;28;20465;-73
2022/01/26 19:16:48;;;;;;;2.40;2.30;;;19.50;51.90;;;;;;5092056;28;20012;-74
2022/01/26 19:25:01;;;;;;;2.20;2.00;;;19.60;52.00;;;;;;5088676;28;20034;-73
2022/01/26 19:27:40;;;;;;;2.15;2.03;;;19.60;52.00;;;;;;5087403;28;20051;-74
2022/01/26 19:33:28;;;;;;;2.13;1.60;;;19.70;52.00;;;;;;5074475;28;20398;-74
2022/01/26 19:44:16;;;;;;;2.00;1.80;;;19.80;52.10;;;;;;5093735;28;20031;-72
2022/01/26 19:52:11;;;;;;;1.83;1.70;;;19.90;52.10;;;;;;5080949;28;20042;-72
2022/01/26 19:54:39;;;;;;;2.20;2.00;;;19.90;52.10;;;;;;5087742;28;20103;-72
2022/01/26 19:57:05;;;;;;;2.00;1.70;;;19.90;52.10;;;;;;5094066;28;20378;-73
2022/01/26 19:59:31;;;;;;;2.30;2.10;;;20.00;52.10;;;;;;5087450;28;20008;-72
2022/01/26 20:01:57;;;;;;;2.20;1.75;;;20.00;52.10;;;;;;5087921;28;20032;-72
2022/01/26 20:04:22;;;;;;;1.70;1.60;;;20.00;52.00;;;;;;5065252;28;20070;-72
2022/01/26 20:06:49;;;;;;;1.88;1.77;;;20.10;52.10;;;;;;5086356;28;20490;-72
2022/01/26 20:09:29;;;;;;;1.88;1.77;;;20.10;52.00;;;;;;5078774;28;20028;-72